Time;durP1;ratioP1;P1;durP2;ratioP2;P2;SDS_P1;SDS_P2;PMS_P1;PMS_P2;Temp;Humidity;BMP_temperature;BMP_pressure;BME280_temperature;BME280_humidity;BME280_pressure;Samples;Min_cycle;Max_cycle;Signal;HPM_P1;HPM_P2
2022/01/05 00:00:08;;;;;;;14.07;2.00;;;4.20;99.90;;;;;;5093311;28;20048;-78
2022/01/05 00:02:39;;;;;;;11.00;1.50;;;4.10;99.90;;;;;;5093260;28;20055;-79
2022/01/05 00:05:06;;;;;;;8.15;1.60;;;4.10;99.90;;;;;;5092373;28;20494;-77
2022/01/05 00:07:32;;;;;;;13.98;2.20;;;4.10;99.90;;;;;;5093567;28;20036;-79
2022/01/05 00:09:58;;;;;;;9.60;1.50;;;3.90;99.90;;;;;;5093328;28;20032;-79
2022/01/05 00:12:24;;;;;;;11.90;1.98;;;4.00;99.90;;;;;;5092430;28;20028;-78
2022/01/05 00:14:50;;;;;;;18.92;2.67;;;3.90;99.90;;;;;;5093041;28;20464;-78
2022/01/05 00:17:15;;;;;;;12.20;2.25;;;3.80;99.90;;;;;;5093091;28;20020;-77
2022/01/05 00:19:41;;;;;;;10.30;2.50;;;3.70;99.90;;;;;;5092556;28;20028;-77
2022/01/05 00:22:07;;;;;;;17.33;1.58;;;3.70;99.90;;;;;;5092889;28;20368;-77
2022/01/05 00:24:33;;;;;;;12.55;2.20;;;3.70;99.90;;;;;;5093150;28;20610;-79
2022/01/05 00:26:58;;;;;;;13.10;2.53;;;3.70;99.90;;;;;;5092194;28;20028;-78
2022/01/05 00:29:24;;;;;;;12.73;2.30;;;3.80;99.90;;;;;;5092655;28;20043;-79
2022/01/05 00:31:50;;;;;;;17.90;3.50;;;3.80;99.90;;;;;;5093315;28;20067;-78
2022/01/05 00:34:15;;;;;;;6.72;1.60;;;3.80;99.90;;;;;;5092151;28;20422;-78
2022/01/05 00:36:41;;;;;;;8.57;1.80;;;3.70;99.90;;;;;;5092961;28;20020;-78
2022/01/05 00:39:07;;;;;;;12.20;2.08;;;3.60;99.90;;;;;;5092513;28;20070;-79
2022/01/05 00:41:32;;;;;;;11.02;2.03;;;3.60;99.90;;;;;;5092261;27;20028;-79
2022/01/05 00:43:58;;;;;;;12.50;2.35;;;3.70;99.90;;;;;;5092690;28;20028;-80
2022/01/05 00:46:23;;;;;;;4.93;1.67;;;3.70;99.90;;;;;;5091909;28;20277;-78
2022/01/05 00:48:55;;;;;;;14.63;2.47;;;3.70;99.90;;;;;;5092907;28;20020;-79
2022/01/05 00:51:21;;;;;;;13.07;1.50;;;3.70;99.90;;;;;;5092612;28;20031;-79
2022/01/05 00:53:46;;;;;;;14.05;2.05;;;3.70;99.90;;;;;;5092126;28;20020;-78
2022/01/05 00:56:15;;;;;;;11.25;1.50;;;3.70;99.90;;;;;;5092416;28;20024;-78
2022/01/05 00:58:41;;;;;;;17.75;2.47;;;3.70;99.90;;;;;;5092587;28;20398;-79
2022/01/05 01:01:06;;;;;;;7.80;1.63;;;3.70;99.90;;;;;;5091739;28;20043;-80
2022/01/05 01:03:32;;;;;;;5.55;1.25;;;3.80;99.90;;;;;;5092746;28;20122;-79
2022/01/05 01:05:59;;;;;;;8.60;1.63;;;3.80;99.90;;;;;;5092298;28;20444;-78
2022/01/05 01:08:25;;;;;;;5.07;1.27;;;3.80;99.90;;;;;;5091692;28;20034;-79
2022/01/05 01:10:52;;;;;;;13.93;1.58;;;3.80;99.90;;;;;;5092692;28;20031;-78
2022/01/05 01:13:18;;;;;;;6.72;2.17;;;3.80;99.90;;;;;;5092316;28;20059;-78
2022/01/05 01:15:45;;;;;;;9.38;1.30;;;3.60;99.90;;;;;;5092284;28;20028;-79
2022/01/05 01:18:11;;;;;;;4.50;1.48;;;3.60;99.90;;;;;;5092492;28;20024;-79
2022/01/05 01:20:36;;;;;;;9.38;1.63;;;3.60;99.90;;;;;;5092652;28;20437;-78
2022/01/05 01:23:02;;;;;;;11.82;3.58;;;3.60;99.90;;;;;;5091924;28;20023;-78
2022/01/05 01:25:28;;;;;;;10.07;1.92;;;3.50;99.90;;;;;;5092692;28;20036;-79
2022/01/05 01:27:53;;;;;;;10.25;1.60;;;3.50;99.90;;;;;;5092041;28;20439;-79
2022/01/05 01:30:22;;;;;;;14.77;2.08;;;3.60;99.90;;;;;;5091277;28;20119;-79
2022/01/05 01:32:47;;;;;;;16.23;1.83;;;4.70;99.90;;;;;;5092511;28;20074;-80
2022/01/05 01:35:13;;;;;;;8.05;1.80;;;3.60;99.90;;;;;;5091860;28;20036;-79
2022/01/05 01:37:39;;;;;;;9.20;2.08;;;3.60;99.90;;;;;;5092904;28;20028;-78
2022/01/05 01:40:06;;;;;;;10.30;1.92;;;3.60;99.90;;;;;;5095881;28;20475;-79
2022/01/05 01:42:32;;;;;;;11.85;1.92;;;3.50;99.90;;;;;;5096179;28;20047;-78
2022/01/05 01:44:58;;;;;;;12.60;1.85;;;3.50;99.90;;;;;;5095614;28;20472;-78
2022/01/05 01:47:23;;;;;;;4.55;1.67;;;3.30;99.90;;;;;;5095705;28;20357;-78
2022/01/05 01:49:49;;;;;;;11.10;2.00;;;3.40;99.90;;;;;;5095433;28;20024;-79
2022/01/05 01:52:14;;;;;;;8.93;1.52;;;3.50;99.90;;;;;;5095987;28;20485;-78
2022/01/05 01:54:43;;;;;;;7.78;1.42;;;3.50;99.90;;;;;;5095999;28;20025;-78
2022/01/05 01:57:09;;;;;;;6.30;1.38;;;3.50;99.90;;;;;;5095002;28;20077;-79
2022/01/05 01:59:36;;;;;;;14.60;2.33;;;3.60;99.90;;;;;;5096087;28;20024;-79
2022/01/05 02:02:03;;;;;;;13.38;1.63;;;3.50;99.90;;;;;;5095641;28;20384;-79
2022/01/05 02:04:29;;;;;;;16.08;1.90;;;3.60;99.90;;;;;;5095072;28;20028;-78
2022/01/05 02:06:54;;;;;;;7.38;1.35;;;3.50;99.90;;;;;;5095645;28;20361;-78
2022/01/05 02:09:20;;;;;;;14.13;2.45;;;3.50;99.90;;;;;;5095277;28;20047;-78
2022/01/05 02:11:46;;;;;;;6.82;1.92;;;3.50;99.90;;;;;;5079167;28;20067;-79
2022/01/05 02:14:11;;;;;;;7.57;1.75;;;3.50;99.90;;;;;;5075150;28;20028;-79
2022/01/05 02:16:41;;;;;;;12.88;1.60;;;3.50;99.90;;;;;;5075578;28;20020;-79
2022/01/05 02:19:06;;;;;;;7.80;2.00;;;3.40;99.90;;;;;;5074504;28;20060;-79
2022/01/05 02:21:36;;;;;;;13.65;1.90;;;3.40;99.90;;;;;;5075577;28;20059;-79
2022/01/05 02:24:05;;;;;;;13.00;2.17;;;3.40;99.90;;;;;;5075161;28;20032;-80
2022/01/05 02:26:31;;;;;;;10.38;1.83;;;3.40;99.90;;;;;;5074548;28;20642;-79
2022/01/05 02:28:57;;;;;;;4.78;1.30;;;3.50;99.90;;;;;;5075178;28;20025;-79
2022/01/05 02:31:23;;;;;;;13.07;2.92;;;3.50;99.90;;;;;;5074898;28;20028;-78
2022/01/05 02:33:49;;;;;;;6.22;1.60;;;3.50;99.90;;;;;;5074932;28;20044;-77
2022/01/05 02:36:18;;;;;;;13.27;1.67;;;3.50;99.90;;;;;;5074785;28;20381;-77
2022/01/05 02:38:45;;;;;;;18.25;2.92;;;3.40;99.90;;;;;;5074770;28;20114;-78
2022/01/05 02:41:11;;;;;;;11.60;3.30;;;3.40;99.90;;;;;;5074189;28;20067;-79
2022/01/05 02:43:39;;;;;;;7.75;1.80;;;3.40;99.90;;;;;;5074834;28;20074;-78
2022/01/05 02:46:05;;;;;;;9.40;2.08;;;3.40;99.90;;;;;;5073503;28;20036;-79
2022/01/05 02:48:33;;;;;;;7.82;1.70;;;3.50;99.90;;;;;;5074724;28;20028;-77
2022/01/05 02:50:59;;;;;;;9.43;2.45;;;3.50;99.90;;;;;;5074563;28;20031;-79
2022/01/05 02:53:25;;;;;;;10.15;2.20;;;3.50;99.90;;;;;;5073595;28;20557;-77
2022/01/05 02:55:54;;;;;;;11.00;2.08;;;3.50;99.90;;;;;;5074767;28;20032;-77
2022/01/05 02:58:19;;;;;;;10.90;2.20;;;3.50;99.90;;;;;;5074310;28;20021;-79
2022/01/05 03:00:45;;;;;;;11.43;1.60;;;3.60;99.90;;;;;;5073868;28;20361;-77
2022/01/05 03:03:11;;;;;;;11.25;1.98;;;3.50;99.90;;;;;;5074094;28;20043;-78
2022/01/05 03:05:36;;;;;;;14.73;2.63;;;3.60;99.90;;;;;;5074121;28;20056;-78
2022/01/05 03:08:02;;;;;;;9.93;1.98;;;3.60;99.90;;;;;;5073780;28;20059;-78
2022/01/05 03:10:28;;;;;;;15.20;2.67;;;3.60;99.90;;;;;;5073971;28;20028;-78
2022/01/05 03:12:56;;;;;;;15.02;2.90;;;3.60;99.90;;;;;;5074413;28;20021;-78
2022/01/05 03:15:22;;;;;;;17.17;1.75;;;3.60;99.90;;;;;;5073466;28;20028;-78
2022/01/05 03:17:48;;;;;;;11.93;2.92;;;3.60;99.90;;;;;;5074162;28;20024;-78
2022/01/05 03:20:14;;;;;;;13.93;1.83;;;3.70;99.90;;;;;;5073569;28;20062;-78
2022/01/05 03:22:40;;;;;;;14.93;2.10;;;3.60;99.90;;;;;;5073438;28;20027;-78
2022/01/05 03:25:08;;;;;;;12.85;2.15;;;3.70;99.90;;;;;;5073584;28;20106;-79
2022/01/05 03:27:34;;;;;;;24.38;3.78;;;3.60;99.90;;;;;;5073928;28;20024;-78
2022/01/05 03:30:00;;;;;;;19.10;3.17;;;3.60;99.90;;;;;;5073274;28;20381;-78
2022/01/05 03:32:31;;;;;;;13.10;1.95;;;3.60;99.90;;;;;;5073581;28;20091;-78
2022/01/05 03:34:57;;;;;;;23.73;3.72;;;3.70;99.90;;;;;;5073874;28;20047;-78
2022/01/05 03:37:22;;;;;;;10.98;1.98;;;3.80;99.90;;;;;;5072745;28;20017;-78
2022/01/05 03:39:48;;;;;;;14.27;1.83;;;3.80;99.90;;;;;;5073796;28;20028;-79
2022/01/05 03:42:13;;;;;;;10.07;2.38;;;3.80;99.90;;;;;;5072727;28;20029;-78
2022/01/05 03:44:39;;;;;;;9.65;1.77;;;3.80;99.90;;;;;;5073549;28;20119;-78
2022/01/05 03:47:05;;;;;;;12.57;2.17;;;3.90;99.90;;;;;;5073676;28;20063;-78
2022/01/05 03:49:30;;;;;;;13.68;2.65;;;3.80;99.90;;;;;;5073005;28;20059;-80
2022/01/05 03:51:56;;;;;;;12.82;2.80;;;3.80;99.90;;;;;;5073280;28;20048;-79
2022/01/05 03:54:24;;;;;;;15.15;2.92;;;3.80;99.90;;;;;;5072740;28;20111;-78
2022/01/05 03:56:50;;;;;;;19.83;2.47;;;3.80;99.90;;;;;;5071939;28;20035;-79
2022/01/05 03:59:15;;;;;;;14.40;4.07;;;3.80;99.90;;;;;;5072965;28;20100;-79
2022/01/05 04:01:41;;;;;;;13.88;2.33;;;3.90;99.90;;;;;;5072272;28;20438;-78
2022/01/05 04:04:06;;;;;;;14.63;2.40;;;3.90;99.90;;;;;;5072507;28;20421;-79
2022/01/05 04:06:32;;;;;;;15.85;2.35;;;4.00;99.90;;;;;;5073203;28;20376;-79
2022/01/05 04:08:57;;;;;;;16.45;2.55;;;4.00;99.90;;;;;;5073031;28;20028;-79
2022/01/05 04:11:23;;;;;;;14.85;2.70;;;4.10;99.90;;;;;;5071964;28;20078;-78
2022/01/05 04:13:51;;;;;;;17.75;2.28;;;4.20;99.90;;;;;;5073275;28;20024;-77
2022/01/05 04:16:17;;;;;;;15.80;4.15;;;4.30;99.90;;;;;;5072423;28;20491;-78
2022/01/05 04:18:42;;;;;;;20.75;2.38;;;4.30;99.90;;;;;;5072146;28;20021;-77
2022/01/05 04:21:08;;;;;;;16.60;2.38;;;4.40;99.90;;;;;;5072818;28;20029;-78
2022/01/05 04:23:33;;;;;;;17.10;2.67;;;4.40;99.90;;;;;;5072719;28;20025;-77
2022/01/05 04:25:59;;;;;;;21.08;2.90;;;4.40;99.90;;;;;;5072161;28;20085;-77
2022/01/05 04:28:24;;;;;;;12.60;2.53;;;4.50;99.90;;;;;;5072597;28;20025;-79
2022/01/05 04:30:50;;;;;;;14.02;2.13;;;4.60;99.90;;;;;;5073069;28;20024;-78
2022/01/05 04:33:15;;;;;;;23.83;3.40;;;4.60;99.90;;;;;;5071743;28;20085;-78
2022/01/05 04:35:41;;;;;;;21.13;3.47;;;4.60;99.90;;;;;;5073065;28;20112;-77
2022/01/05 04:38:06;;;;;;;12.25;1.85;;;4.60;99.90;;;;;;5072445;28;20021;-78
2022/01/05 04:40:32;;;;;;;13.35;2.05;;;4.60;99.90;;;;;;5072216;28;20035;-79
2022/01/05 04:42:58;;;;;;;12.50;2.80;;;4.70;99.90;;;;;;5072448;28;20021;-78
2022/01/05 04:45:24;;;;;;;16.35;2.28;;;4.70;99.90;;;;;;5072337;28;20438;-79
2022/01/05 04:47:49;;;;;;;10.70;2.05;;;4.60;99.90;;;;;;5071776;28;20017;-79
2022/01/05 04:50:15;;;;;;;12.98;2.45;;;4.60;99.90;;;;;;5072477;28;20025;-78
2022/01/05 04:52:41;;;;;;;18.50;2.53;;;4.50;99.90;;;;;;5071678;28;20412;-79
2022/01/05 04:55:08;;;;;;;12.60;1.70;;;4.50;99.90;;;;;;5072334;28;20044;-78
2022/01/05 04:57:34;;;;;;;16.60;2.00;;;4.50;99.90;;;;;;5072522;28;20033;-79
2022/01/05 05:00:00;;;;;;;13.93;2.90;;;5.70;99.90;;;;;;5071936;28;20414;-78
2022/01/05 05:02:26;;;;;;;14.00;2.17;;;4.50;99.90;;;;;;5072085;28;20084;-79
2022/01/05 05:04:54;;;;;;;12.90;2.00;;;4.40;99.90;;;;;;5072475;28;20024;-79
2022/01/05 05:07:20;;;;;;;9.48;1.42;;;4.40;99.90;;;;;;5072571;28;20029;-79
2022/01/05 05:09:45;;;;;;;12.13;1.95;;;4.50;99.90;;;;;;5072506;28;20499;-78
2022/01/05 05:12:11;;;;;;;15.90;2.38;;;4.50;99.90;;;;;;5072606;28;20025;-80
2022/01/05 05:14:36;;;;;;;13.88;2.58;;;4.50;99.90;;;;;;5075941;28;20020;-79
2022/01/05 05:17:02;;;;;;;18.58;2.95;;;4.60;99.90;;;;;;5076502;28;20029;-79
2022/01/05 05:19:31;;;;;;;10.90;1.95;;;4.60;99.90;;;;;;5076693;28;20044;-80
2022/01/05 05:21:56;;;;;;;9.02;3.95;;;4.70;99.90;;;;;;5076955;28;20090;-80
2022/01/05 05:24:22;;;;;;;21.27;4.18;;;4.80;99.90;;;;;;5076040;28;20687;-78
2022/01/05 05:26:47;;;;;;;15.52;3.05;;;4.70;99.90;;;;;;5076085;28;20032;-79
2022/01/05 05:29:13;;;;;;;10.75;2.25;;;4.70;99.90;;;;;;5075243;28;20028;-79
2022/01/05 05:31:38;;;;;;;13.65;3.63;;;4.70;99.90;;;;;;5076116;28;20021;-79
2022/01/05 05:34:04;;;;;;;9.63;2.10;;;4.70;99.90;;;;;;5075956;28;20380;-79
2022/01/05 05:36:29;;;;;;;11.38;3.03;;;4.70;99.90;;;;;;5075358;28;20056;-79
2022/01/05 05:38:55;;;;;;;9.80;2.40;;;4.60;99.90;;;;;;5075997;28;20105;-79
2022/01/05 05:41:20;;;;;;;12.07;2.33;;;4.60;99.90;;;;;;5075564;28;20356;-79
2022/01/05 05:43:48;;;;;;;11.25;2.00;;;4.60;99.90;;;;;;5075236;28;20475;-79
2022/01/05 05:46:19;;;;;;;12.77;2.85;;;4.60;99.90;;;;;;5075239;28;20086;-78
2022/01/05 05:48:44;;;;;;;10.63;2.17;;;4.60;99.90;;;;;;5075783;28;20354;-79
2022/01/05 05:51:10;;;;;;;15.07;2.40;;;3.70;99.90;;;;;;5075098;28;20039;-80
2022/01/05 05:53:35;;;;;;;13.43;1.85;;;4.50;99.90;;;;;;5075753;28;20028;-79
2022/01/05 05:56:01;;;;;;;12.05;3.10;;;4.60;99.90;;;;;;5075041;28;20033;-79
2022/01/05 05:58:26;;;;;;;9.07;1.90;;;4.60;99.90;;;;;;5075370;28;20078;-79
2022/01/05 06:00:52;;;;;;;15.40;2.38;;;4.60;99.90;;;;;;5075322;28;20054;-80
2022/01/05 06:03:17;;;;;;;13.02;2.35;;;4.60;99.90;;;;;;5074596;28;20127;-79
2022/01/05 06:05:43;;;;;;;11.30;2.35;;;4.60;99.90;;;;;;5075476;28;20033;-79
2022/01/05 06:08:09;;;;;;;11.25;2.10;;;4.60;99.90;;;;;;5075234;28;20029;-78
2022/01/05 06:10:35;;;;;;;18.33;3.10;;;4.50;99.90;;;;;;5075238;28;20068;-79
2022/01/05 06:13:00;;;;;;;13.40;2.30;;;4.50;99.90;;;;;;5075747;28;20025;-80
2022/01/05 06:15:26;;;;;;;11.00;2.63;;;4.60;99.90;;;;;;5075290;28;20375;-79
2022/01/05 06:17:51;;;;;;;17.05;2.22;;;4.60;99.90;;;;;;5075076;28;20017;-78
2022/01/05 06:20:17;;;;;;;11.60;2.47;;;4.50;99.90;;;;;;5073815;28;20029;-78
2022/01/05 06:22:43;;;;;;;25.55;3.30;;;4.60;99.90;;;;;;5073250;28;20058;-80
2022/01/05 06:25:10;;;;;;;18.13;2.95;;;4.50;99.90;;;;;;5073674;28;20033;-80
2022/01/05 06:27:39;;;;;;;6.07;1.95;;;4.60;99.90;;;;;;5073814;28;20021;-80
2022/01/05 06:30:07;;;;;;;11.32;2.45;;;4.60;99.90;;;;;;5073321;28;20099;-79
2022/01/05 06:32:41;;;;;;;20.80;2.00;;;4.60;99.90;;;;;;5073185;28;20048;-80
2022/01/05 06:35:07;;;;;;;16.75;3.40;;;4.70;99.90;;;;;;5073624;28;20464;-81
2022/01/05 06:37:33;;;;;;;15.55;3.08;;;4.80;99.90;;;;;;5076698;28;20021;-78
2022/01/05 06:39:58;;;;;;;9.25;1.67;;;4.80;99.90;;;;;;5073705;28;20035;-79
2022/01/05 06:42:24;;;;;;;12.77;2.13;;;4.90;99.90;;;;;;5079525;28;20047;-79
2022/01/05 06:44:52;;;;;;;10.57;2.22;;;4.90;99.90;;;;;;5074177;28;20054;-79
2022/01/05 06:47:18;;;;;;;23.65;2.83;;;5.00;99.90;;;;;;5079264;28;20388;-79
2022/01/05 06:49:44;;;;;;;11.23;1.88;;;5.00;99.90;;;;;;5074205;28;20019;-79
2022/01/05 06:52:11;;;;;;;16.52;2.40;;;5.00;99.90;;;;;;5076104;28;20090;-78
2022/01/05 06:54:38;;;;;;;11.02;1.98;;;5.10;99.90;;;;;;5074047;28;20021;-78
2022/01/05 06:57:04;;;;;;;13.35;1.77;;;5.10;99.90;;;;;;5076252;28;20361;-79
2022/01/05 06:59:30;;;;;;;15.90;3.47;;;5.20;99.90;;;;;;5079536;28;20028;-79
2022/01/05 07:01:55;;;;;;;14.02;2.70;;;5.20;99.90;;;;;;5090037;28;20028;-78
2022/01/05 07:04:21;;;;;;;13.02;3.20;;;5.10;99.90;;;;;;5088685;28;20064;-79
2022/01/05 07:06:46;;;;;;;16.10;2.33;;;5.10;99.90;;;;;;5076005;28;20032;-79
2022/01/05 07:09:12;;;;;;;20.73;2.53;;;5.20;99.90;;;;;;5086027;28;20020;-79
2022/01/05 07:11:38;;;;;;;17.63;3.17;;;5.10;99.90;;;;;;5087832;28;20039;-79
2022/01/05 07:14:05;;;;;;;14.48;2.15;;;5.10;99.90;;;;;;5077877;28;20074;-77
2022/01/05 07:16:31;;;;;;;16.42;2.72;;;5.10;99.90;;;;;;5090668;28;20472;-77
2022/01/05 07:18:56;;;;;;;22.92;3.15;;;5.20;99.90;;;;;;5083775;28;20021;-78
2022/01/05 07:21:22;;;;;;;16.10;2.47;;;5.10;99.90;;;;;;5085352;28;20423;-79
2022/01/05 07:23:47;;;;;;;10.63;2.25;;;5.20;99.90;;;;;;5093380;28;20025;-80
2022/01/05 07:26:13;;;;;;;18.75;3.70;;;5.20;99.90;;;;;;5093048;28;20590;-79
2022/01/05 07:28:42;;;;;;;13.32;4.55;;;5.20;99.90;;;;;;5092919;28;20039;-80
2022/01/05 07:31:07;;;;;;;15.63;3.45;;;5.20;99.90;;;;;;5088791;28;20061;-80
2022/01/05 07:33:33;;;;;;;19.23;3.45;;;5.10;99.90;;;;;;5083921;28;20058;-80
2022/01/05 07:35:58;;;;;;;9.15;2.97;;;5.20;99.90;;;;;;5089845;28;20054;-82
2022/01/05 07:38:24;;;;;;;12.13;1.75;;;5.10;99.90;;;;;;5093785;28;20020;-81
2022/01/05 07:40:49;;;;;;;27.30;3.53;;;5.20;99.90;;;;;;5090960;28;20020;-83
2022/01/05 07:43:18;;;;;;;14.88;2.95;;;5.10;99.90;;;;;;5092271;28;20098;-77
2022/01/05 07:45:43;;;;;;;22.17;3.28;;;5.20;99.90;;;;;;5072248;28;20051;-77
2022/01/05 07:48:09;;;;;;;10.10;2.25;;;5.20;99.90;;;;;;5089438;28;20023;-76
2022/01/05 07:50:35;;;;;;;12.77;2.10;;;5.20;99.90;;;;;;5080217;28;20086;-77
2022/01/05 07:53:04;;;;;;;18.38;2.50;;;5.20;99.90;;;;;;5084223;28;20008;-75
2022/01/05 07:55:31;;;;;;;11.02;2.20;;;5.20;99.90;;;;;;5089756;28;20058;-77
2022/01/05 07:57:58;;;;;;;24.60;3.15;;;5.20;99.90;;;;;;5084234;28;20095;-77
2022/01/05 08:00:24;;;;;;;14.50;2.88;;;5.20;99.90;;;;;;5085254;28;20032;-75
2022/01/05 08:02:49;;;;;;;14.85;2.42;;;5.20;99.90;;;;;;5090179;28;20115;-75
2022/01/05 08:05:15;;;;;;;16.38;4.10;;;5.30;99.90;;;;;;5092779;28;20589;-76
2022/01/05 08:07:40;;;;;;;18.17;2.95;;;5.40;99.90;;;;;;5094294;28;20048;-77
2022/01/05 08:10:06;;;;;;;16.45;2.35;;;5.40;99.90;;;;;;5078396;28;20034;-76
2022/01/05 08:12:32;;;;;;;15.63;3.28;;;5.40;99.90;;;;;;5092679;28;20470;-77
2022/01/05 08:14:58;;;;;;;18.98;2.88;;;5.50;99.90;;;;;;5081464;28;20029;-77
2022/01/05 08:17:23;;;;;;;14.27;2.40;;;5.50;99.90;;;;;;5091568;28;20110;-76
2022/01/05 08:19:49;;;;;;;18.42;3.85;;;5.50;99.90;;;;;;5092300;28;20016;-77
2022/01/05 08:22:14;;;;;;;15.30;2.90;;;5.50;99.90;;;;;;5073237;28;20024;-77
2022/01/05 08:24:40;;;;;;;16.88;3.53;;;5.50;99.90;;;;;;5072104;28;20023;-76
2022/01/05 08:27:05;;;;;;;5.82;1.70;;;5.60;99.90;;;;;;5072815;28;20073;-77
2022/01/05 08:29:31;;;;;;;21.25;3.55;;;5.60;99.90;;;;;;5072776;28;20077;-76
2022/01/05 08:32:02;;;;;;;21.30;1.67;;;5.60;99.90;;;;;;5072030;28;20020;-75
2022/01/05 08:34:30;;;;;;;;;;;5.60;99.90;;;;;;5073458;28;20046;-76
2022/01/05 08:36:57;;;;;;;16.05;3.05;;;5.50;99.90;;;;;;5073919;28;19904;-76
2022/01/05 08:39:23;;;;;;;18.67;2.42;;;5.50;99.90;;;;;;5071876;28;20503;-75
2022/01/05 08:41:52;;;;;;;29.20;3.28;;;5.50;99.90;;;;;;5072908;28;20051;-74
2022/01/05 08:44:18;;;;;;;6.82;1.38;;;5.50;99.90;;;;;;5072468;28;20031;-74
2022/01/05 08:46:43;;;;;;;19.10;3.33;;;5.40;99.90;;;;;;5071316;28;20032;-74
2022/01/05 08:49:10;;;;;;;16.13;2.03;;;5.40;99.90;;;;;;5076265;28;20027;-73
2022/01/05 08:51:39;;;;;;;12.45;1.77;;;5.30;99.90;;;;;;5090973;28;20028;-75
2022/01/05 08:54:05;;;;;;;12.57;2.40;;;5.30;99.90;;;;;;5084315;28;20024;-74
2022/01/05 08:56:32;;;;;;;17.70;1.90;;;5.40;99.90;;;;;;5090649;28;20046;-74
2022/01/05 08:58:58;;;;;;;22.23;3.10;;;5.40;99.90;;;;;;5089400;28;21478;-73
2022/01/05 09:01:24;;;;;;;24.05;4.05;;;5.40;99.90;;;;;;5090060;28;20055;-73
2022/01/05 09:03:53;;;;;;;17.92;2.97;;;5.30;99.90;;;;;;5090542;28;20051;-75
2022/01/05 09:06:20;;;;;;;8.35;1.90;;;5.40;99.90;;;;;;5089934;28;20039;-75
2022/01/05 09:08:46;;;;;;;18.27;2.78;;;5.30;99.90;;;;;;5090626;28;20028;-72
2022/01/05 09:11:11;;;;;;;17.13;2.28;;;5.30;99.90;;;;;;5090555;28;20062;-76
2022/01/05 09:13:37;;;;;;;14.93;2.65;;;5.40;99.90;;;;;;5089757;28;20437;-76
2022/01/05 09:16:03;;;;;;;33.13;4.03;;;5.30;99.90;;;;;;5090616;28;20060;-78
2022/01/05 09:18:29;;;;;;;14.00;2.45;;;5.30;99.90;;;;;;5090398;28;20475;-76
2022/01/05 09:20:55;;;;;;;19.38;3.35;;;5.40;99.90;;;;;;5080831;28;20032;-75
2022/01/05 09:23:21;;;;;;;19.25;2.70;;;5.40;99.90;;;;;;5085709;28;20387;-74
2022/01/05 09:25:47;;;;;;;7.10;1.63;;;5.40;99.90;;;;;;5076823;28;20051;-75
2022/01/05 09:28:13;;;;;;;32.25;3.95;;;5.40;99.90;;;;;;5078407;28;20356;-75
2022/01/05 09:30:38;;;;;;;13.43;2.45;;;5.40;99.90;;;;;;5079892;28;20066;-73
2022/01/05 09:33:04;;;;;;;9.45;1.88;;;5.40;99.90;;;;;;5081547;28;20396;-74
2022/01/05 09:35:30;;;;;;;16.40;3.13;;;5.50;99.90;;;;;;5079099;28;20089;-74
2022/01/05 09:43:07;;;;;;;16.48;2.95;;;5.40;99.90;;;;;;5084566;28;20129;-74
2022/01/05 09:45:36;;;;;;;20.67;2.67;;;5.50;99.90;;;;;;5084513;28;20151;-74
2022/01/05 09:48:16;;;;;;;21.52;3.08;;;5.50;99.90;;;;;;5082709;28;20460;-74
2022/01/05 09:50:58;;;;;;;18.13;2.53;;;5.50;99.90;;;;;;5085052;28;20020;-74
2022/01/05 09:53:25;;;;;;;20.42;2.47;;;5.60;99.90;;;;;;5085042;28;20487;-74
2022/01/05 09:55:52;;;;;;;25.70;3.03;;;5.60;99.90;;;;;;5081061;28;20074;-73
2022/01/05 09:58:22;;;;;;;22.20;3.25;;;5.60;99.90;;;;;;5084998;28;20425;-73
2022/01/05 10:00:51;;;;;;;19.98;2.70;;;5.70;99.90;;;;;;5088862;28;20497;-75
2022/01/05 10:03:17;;;;;;;8.73;1.70;;;5.70;99.90;;;;;;5088139;28;20054;-76
2022/01/05 10:05:43;;;;;;;22.15;3.50;;;5.70;99.90;;;;;;5087946;28;20065;-75
2022/01/05 10:08:09;;;;;;;15.10;2.03;;;5.80;99.90;;;;;;5088833;28;20028;-75
2022/01/05 10:10:35;;;;;;;9.57;4.00;;;5.80;99.90;;;;;;5088214;28;20024;-75
2022/01/05 10:13:04;;;;;;;23.73;3.17;;;5.80;99.90;;;;;;5088508;28;20016;-75
2022/01/05 10:15:30;;;;;;;13.98;3.75;;;5.90;99.90;;;;;;5088803;28;20402;-75
2022/01/05 10:18:18;;;;;;;33.58;4.18;;;5.90;99.90;;;;;;5087857;28;20077;-74
2022/01/05 10:21:02;;;;;;;33.60;5.00;;;5.90;99.90;;;;;;5088895;28;20630;-75
2022/01/05 10:23:44;;;;;;;22.58;3.08;;;5.90;99.90;;;;;;5088555;28;20038;-75
2022/01/05 10:26:29;;;;;;;23.70;4.10;;;6.00;99.90;;;;;;5088707;28;20064;-74
2022/01/05 10:28:56;;;;;;;22.75;3.28;;;6.00;99.90;;;;;;5088502;28;20032;-76
2022/01/05 10:31:25;;;;;;;14.85;2.08;;;6.00;99.90;;;;;;5087356;28;20046;-74
2022/01/05 10:33:51;;;;;;;16.92;3.65;;;6.00;99.90;;;;;;5088395;28;20048;-74
2022/01/05 10:36:17;;;;;;;22.95;2.58;;;6.00;99.90;;;;;;5087329;28;20145;-75
2022/01/05 10:38:58;;;;;;;29.35;5.05;;;6.00;99.90;;;;;;5087170;28;20016;-73
2022/01/05 10:41:30;;;;;;;10.82;2.67;;;6.00;99.90;;;;;;5087906;28;20035;-74
2022/01/05 10:44:19;;;;;;;18.05;2.10;;;6.10;99.90;;;;;;5087196;28;20501;-72
2022/01/05 10:46:55;;;;;;;23.15;3.08;;;6.10;99.90;;;;;;5088120;28;20035;-73
2022/01/05 10:49:33;;;;;;;28.75;2.65;;;6.00;99.90;;;;;;5087888;28;20035;-74
2022/01/05 10:52:20;;;;;;;22.83;3.55;;;6.00;99.90;;;;;;5087544;28;20052;-73
2022/01/05 10:54:47;;;;;;;33.90;3.25;;;6.00;99.90;;;;;;5102145;28;20082;-73
2022/01/05 10:57:13;;;;;;;16.35;2.17;;;6.10;99.90;;;;;;5088666;28;20286;-73
2022/01/05 10:59:43;;;;;;;11.52;2.03;;;6.00;99.90;;;;;;5088052;28;20490;-73
2022/01/05 11:02:32;;;;;;;20.52;2.95;;;6.10;99.90;;;;;;5087524;28;20044;-75
2022/01/05 11:05:08;;;;;;;16.42;1.95;;;6.10;99.90;;;;;;5087810;28;20479;-75
2022/01/05 11:07:39;;;;;;;13.35;2.47;;;6.20;99.90;;;;;;5086868;28;20051;-76
2022/01/05 11:10:09;;;;;;;10.15;1.63;;;6.20;99.90;;;;;;5086341;28;20669;-74
2022/01/05 11:12:37;;;;;;;9.05;1.83;;;6.20;99.90;;;;;;5086563;28;20028;-74
2022/01/05 11:15:28;;;;;;;24.00;4.15;;;6.20;99.90;;;;;;5086649;28;20119;-74
2022/01/05 11:18:12;;;;;;;14.77;2.67;;;6.30;99.90;;;;;;5087574;28;20047;-74
2022/01/05 11:20:47;;;;;;;28.45;3.85;;;6.30;99.90;;;;;;5085524;28;20047;-75
2022/01/05 11:23:14;;;;;;;11.52;1.88;;;6.30;99.90;;;;;;5086063;28;20028;-75
2022/01/05 11:25:43;;;;;;;17.65;2.15;;;6.30;99.90;;;;;;5085619;28;20064;-74
2022/01/05 11:28:10;;;;;;;21.37;3.03;;;6.40;99.90;;;;;;5085744;28;20020;-74
2022/01/05 11:30:36;;;;;;;22.67;4.88;;;6.30;99.90;;;;;;5086912;28;20038;-74
2022/01/05 11:33:03;;;;;;;22.67;2.78;;;6.30;99.90;;;;;;5086357;28;20016;-74
2022/01/05 11:35:29;;;;;;;13.45;2.88;;;6.30;99.90;;;;;;5087435;28;20393;-74
2022/01/05 11:37:54;;;;;;;22.67;3.47;;;6.40;99.90;;;;;;5087200;28;20023;-76
2022/01/05 11:40:22;;;;;;;17.50;2.75;;;6.50;99.90;;;;;;5086077;28;20466;-74
2022/01/05 11:42:50;;;;;;;14.80;2.63;;;6.50;99.90;;;;;;5086454;28;20062;-75
2022/01/05 11:45:46;;;;;;;12.00;2.03;;;6.50;99.90;;;;;;5086735;28;20040;-73
2022/01/05 11:48:27;;;;;;;28.98;3.95;;;6.50;99.90;;;;;;5075955;28;20031;-74
2022/01/05 11:50:59;;;;;;;20.30;3.58;;;6.40;99.90;;;;;;5085496;28;21729;-73
2022/01/05 11:53:51;;;;;;;16.23;3.83;;;6.30;99.90;;;;;;5086286;28;20031;-73
2022/01/05 11:56:22;;;;;;;12.25;2.72;;;6.20;99.90;;;;;;5083134;28;20057;-74
2022/01/05 11:58:56;;;;;;;17.23;3.92;;;6.20;99.90;;;;;;5083085;28;20097;-74
2022/01/05 12:01:25;;;;;;;17.58;2.15;;;6.20;99.90;;;;;;5086197;28;20121;-74
2022/01/05 12:03:57;;;;;;;17.08;3.05;;;6.20;99.90;;;;;;5085089;28;20040;-74
2022/01/05 12:06:26;;;;;;;13.27;2.95;;;6.30;99.90;;;;;;5086523;28;20056;-74
2022/01/05 12:08:56;;;;;;;27.75;3.53;;;6.30;99.90;;;;;;5090596;28;20039;-74
2022/01/05 12:11:42;;;;;;;17.23;1.83;;;6.30;99.90;;;;;;5085363;28;20032;-74
2022/01/05 12:14:27;;;;;;;30.40;3.50;;;6.40;99.90;;;;;;5091439;28;20024;-73
2022/01/05 12:17:14;;;;;;;11.57;2.65;;;6.50;99.90;;;;;;5086861;28;20036;-73
2022/01/05 12:19:46;;;;;;;10.60;2.00;;;6.40;99.90;;;;;;5079128;28;20499;-73
2022/01/05 12:22:30;;;;;;;28.33;3.83;;;6.40;99.90;;;;;;5089850;28;20020;-73
2022/01/05 12:25:00;;;;;;;25.73;3.22;;;6.50;99.90;;;;;;5082754;28;20024;-73
2022/01/05 12:27:27;;;;;;;12.35;1.95;;;6.50;99.90;;;;;;5091170;28;20039;-74
2022/01/05 12:29:54;;;;;;;14.77;2.40;;;6.50;99.90;;;;;;5077165;28;20024;-73
2022/01/05 12:32:35;;;;;;;8.05;1.92;;;6.50;99.90;;;;;;5078752;28;20033;-73
2022/01/05 12:35:06;;;;;;;17.45;3.90;;;6.50;99.90;;;;;;5084753;28;20084;-73
2022/01/05 12:38:04;;;;;;;25.05;3.75;;;6.40;99.90;;;;;;5090669;28;20109;-73
2022/01/05 12:40:30;;;;;;;15.60;2.97;;;6.40;99.90;;;;;;5070214;28;20361;-74
2022/01/05 12:43:18;;;;;;;14.15;3.60;;;6.40;99.90;;;;;;5070710;28;20028;-72
2022/01/05 12:45:53;;;;;;;17.77;2.28;;;6.40;99.90;;;;;;5063957;28;20055;-73
2022/01/05 12:48:33;;;;;;;18.48;2.72;;;7.00;99.90;;;;;;5072554;28;20048;-74
2022/01/05 12:51:11;;;;;;;15.05;2.42;;;6.50;99.90;;;;;;5071494;28;20020;-75
2022/01/05 12:53:49;;;;;;;14.07;2.13;;;6.50;99.90;;;;;;5072405;28;20098;-74
2022/01/05 12:56:19;;;;;;;22.10;2.67;;;6.50;99.90;;;;;;5072443;28;20136;-73